sensor_id;sensor_type;location;lat;lon;timestamp;P1;durP1;ratioP1;P2;durP2;ratioP2
43990;SDS011;29654;50.784;20.604;2023-01-10T00:01:23;21.10;;;16.40;;
43990;SDS011;29654;50.784;20.604;2023-01-10T00:06:27;19.58;;;15.48;;
43990;SDS011;29654;50.784;20.604;2023-01-10T00:11:30;19.77;;;15.02;;
43990;SDS011;29654;50.784;20.604;2023-01-10T00:16:50;20.27;;;16.50;;
43990;SDS011;29654;50.784;20.604;2023-01-10T00:21:54;29.67;;;20.17;;
43990;SDS011;29654;50.784;20.604;2023-01-10T00:27:02;31.52;;;21.80;;
43990;SDS011;29654;50.784;20.604;2023-01-10T00:32:04;20.95;;;17.08;;
43990;SDS011;29654;50.784;20.604;2023-01-10T00:37:09;32.35;;;21.00;;
43990;SDS011;29654;50.784;20.604;2023-01-10T00:42:11;24.73;;;19.50;;
43990;SDS011;29654;50.784;20.604;2023-01-10T00:47:31;24.52;;;18.38;;
43990;SDS011;29654;50.784;20.604;2023-01-10T00:52:35;21.08;;;16.60;;
43990;SDS011;29654;50.784;20.604;2023-01-10T00:57:38;19.50;;;16.02;;
43990;SDS011;29654;50.784;20.604;2023-01-10T01:02:40;23.25;;;17.02;;
43990;SDS011;29654;50.784;20.604;2023-01-10T01:07:45;24.80;;;16.90;;
43990;SDS011;29654;50.784;20.604;2023-01-10T01:12:49;22.45;;;16.65;;
43990;SDS011;29654;50.784;20.604;2023-01-10T01:17:51;20.42;;;16.40;;
43990;SDS011;29654;50.784;20.604;2023-01-10T01:22:57;21.42;;;14.88;;
43990;SDS011;29654;50.784;20.604;2023-01-10T01:28:00;21.08;;;15.57;;
43990;SDS011;29654;50.784;20.604;2023-01-10T01:33:02;22.33;;;16.02;;
43990;SDS011;29654;50.784;20.604;2023-01-10T01:38:06;27.95;;;17.30;;
43990;SDS011;29654;50.784;20.604;2023-01-10T01:43:17;18.92;;;15.27;;
43990;SDS011;29654;50.784;20.604;2023-01-10T01:48:28;17.85;;;14.38;;
43990;SDS011;29654;50.784;20.604;2023-01-10T01:53:39;16.33;;;13.98;;
43990;SDS011;29654;50.784;20.604;2023-01-10T01:58:45;15.80;;;13.25;;
43990;SDS011;29654;50.784;20.604;2023-01-10T02:03:52;14.52;;;12.82;;
43990;SDS011;29654;50.784;20.604;2023-01-10T02:09:04;15.30;;;13.00;;
43990;SDS011;29654;50.784;20.604;2023-01-10T02:14:13;15.27;;;12.80;;
43990;SDS011;29654;50.784;20.604;2023-01-10T02:19:20;14.43;;;12.45;;
43990;SDS011;29654;50.784;20.604;2023-01-10T02:36:22;13.85;;;11.98;;
43990;SDS011;29654;50.784;20.604;2023-01-10T02:41:38;16.25;;;13.38;;
43990;SDS011;29654;50.784;20.604;2023-01-10T02:46:46;15.95;;;13.20;;
43990;SDS011;29654;50.784;20.604;2023-01-10T02:51:51;15.85;;;13.20;;
43990;SDS011;29654;50.784;20.604;2023-01-10T02:56:58;13.88;;;12.40;;
43990;SDS011;29654;50.784;20.604;2023-01-10T03:02:27;13.85;;;11.85;;
43990;SDS011;29654;50.784;20.604;2023-01-10T03:07:45;15.05;;;13.30;;
43990;SDS011;29654;50.784;20.604;2023-01-10T03:13:00;14.27;;;11.80;;
43990;SDS011;29654;50.784;20.604;2023-01-10T03:18:07;13.63;;;12.07;;
43990;SDS011;29654;50.784;20.604;2023-01-10T03:23:18;14.23;;;12.75;;
43990;SDS011;29654;50.784;20.604;2023-01-10T03:28:25;15.48;;;13.13;;
43990;SDS011;29654;50.784;20.604;2023-01-10T03:33:32;12.95;;;11.65;;
43990;SDS011;29654;50.784;20.604;2023-01-10T03:38:40;12.90;;;11.27;;
43990;SDS011;29654;50.784;20.604;2023-01-10T03:43:50;13.48;;;12.07;;
43990;SDS011;29654;50.784;20.604;2023-01-10T03:49:14;13.20;;;11.27;;
43990;SDS011;29654;50.784;20.604;2023-01-10T03:54:19;14.85;;;12.32;;
43990;SDS011;29654;50.784;20.604;2023-01-10T03:59:23;13.27;;;11.93;;
43990;SDS011;29654;50.784;20.604;2023-01-10T04:04:27;13.25;;;11.27;;
43990;SDS011;29654;50.784;20.604;2023-01-10T04:09:32;13.57;;;12.15;;
43990;SDS011;29654;50.784;20.604;2023-01-10T04:14:35;12.68;;;11.40;;
43990;SDS011;29654;50.784;20.604;2023-01-10T04:19:38;13.00;;;11.52;;
43990;SDS011;29654;50.784;20.604;2023-01-10T04:24:43;12.63;;;11.32;;
43990;SDS011;29654;50.784;20.604;2023-01-10T04:29:47;14.27;;;11.15;;
43990;SDS011;29654;50.784;20.604;2023-01-10T04:34:50;13.93;;;11.13;;
43990;SDS011;29654;50.784;20.604;2023-01-10T04:39:54;13.10;;;11.40;;
43990;SDS011;29654;50.784;20.604;2023-01-10T04:44:57;14.25;;;12.57;;
43990;SDS011;29654;50.784;20.604;2023-01-10T04:50:00;14.07;;;12.35;;
43990;SDS011;29654;50.784;20.604;2023-01-10T04:55:04;13.27;;;11.88;;
43990;SDS011;29654;50.784;20.604;2023-01-10T05:00:08;13.70;;;12.30;;
43990;SDS011;29654;50.784;20.604;2023-01-10T05:05:12;13.88;;;11.98;;
43990;SDS011;29654;50.784;20.604;2023-01-10T05:10:17;14.43;;;12.38;;
43990;SDS011;29654;50.784;20.604;2023-01-10T05:15:19;13.70;;;12.25;;
43990;SDS011;29654;50.784;20.604;2023-01-10T05:20:22;14.90;;;12.70;;
43990;SDS011;29654;50.784;20.604;2023-01-10T05:25:26;13.48;;;12.00;;
43990;SDS011;29654;50.784;20.604;2023-01-10T05:30:29;14.52;;;12.32;;
43990;SDS011;29654;50.784;20.604;2023-01-10T05:35:31;15.10;;;12.23;;
43990;SDS011;29654;50.784;20.604;2023-01-10T05:40:36;14.75;;;12.02;;
43990;SDS011;29654;50.784;20.604;2023-01-10T05:45:39;13.48;;;10.52;;
43990;SDS011;29654;50.784;20.604;2023-01-10T05:50:43;13.18;;;9.25;;
43990;SDS011;29654;50.784;20.604;2023-01-10T05:55:53;12.75;;;9.40;;
43990;SDS011;29654;50.784;20.604;2023-01-10T06:00:56;10.27;;;9.18;;
43990;SDS011;29654;50.784;20.604;2023-01-10T06:05:59;13.45;;;10.32;;
43990;SDS011;29654;50.784;20.604;2023-01-10T06:11:04;9.70;;;7.50;;
43990;SDS011;29654;50.784;20.604;2023-01-10T06:16:08;9.70;;;8.60;;
43990;SDS011;29654;50.784;20.604;2023-01-10T06:21:10;11.43;;;9.05;;
43990;SDS011;29654;50.784;20.604;2023-01-10T06:26:14;12.35;;;10.60;;
43990;SDS011;29654;50.784;20.604;2023-01-10T06:31:17;13.00;;;10.40;;
43990;SDS011;29654;50.784;20.604;2023-01-10T06:36:20;10.93;;;9.82;;
43990;SDS011;29654;50.784;20.604;2023-01-10T06:41:24;12.70;;;11.23;;
43990;SDS011;29654;50.784;20.604;2023-01-10T06:46:27;12.93;;;10.90;;
43990;SDS011;29654;50.784;20.604;2023-01-10T06:51:29;9.70;;;8.30;;
43990;SDS011;29654;50.784;20.604;2023-01-10T06:56:33;9.90;;;7.88;;
43990;SDS011;29654;50.784;20.604;2023-01-10T07:01:36;10.68;;;8.20;;
43990;SDS011;29654;50.784;20.604;2023-01-10T07:06:38;9.82;;;8.30;;
43990;SDS011;29654;50.784;20.604;2023-01-10T07:11:43;8.02;;;6.78;;
43990;SDS011;29654;50.784;20.604;2023-01-10T07:16:45;6.80;;;6.13;;
43990;SDS011;29654;50.784;20.604;2023-01-10T07:21:48;7.53;;;6.80;;
43990;SDS011;29654;50.784;20.604;2023-01-10T07:26:54;10.13;;;7.72;;
43990;SDS011;29654;50.784;20.604;2023-01-10T07:31:57;9.10;;;7.53;;
43990;SDS011;29654;50.784;20.604;2023-01-10T07:37:00;8.27;;;6.78;;
43990;SDS011;29654;50.784;20.604;2023-01-10T07:42:05;9.68;;;7.88;;
43990;SDS011;29654;50.784;20.604;2023-01-10T07:47:10;11.55;;;9.32;;
43990;SDS011;29654;50.784;20.604;2023-01-10T07:52:13;12.32;;;10.88;;
43990;SDS011;29654;50.784;20.604;2023-01-10T07:57:17;14.73;;;12.35;;
43990;SDS011;29654;50.784;20.604;2023-01-10T08:02:19;19.75;;;14.27;;
43990;SDS011;29654;50.784;20.604;2023-01-10T08:07:22;18.25;;;14.95;;
43990;SDS011;29654;50.784;20.604;2023-01-10T08:12:26;17.70;;;14.23;;
43990;SDS011;29654;50.784;20.604;2023-01-10T08:17:31;15.52;;;12.93;;
43990;SDS011;29654;50.784;20.604;2023-01-10T08:22:34;11.23;;;10.02;;
43990;SDS011;29654;50.784;20.604;2023-01-10T08:27:38;11.95;;;10.40;;
43990;SDS011;29654;50.784;20.604;2023-01-10T08:32:40;11.35;;;9.07;;
43990;SDS011;29654;50.784;20.604;2023-01-10T08:37:43;12.52;;;10.20;;
43990;SDS011;29654;50.784;20.604;2023-01-10T08:42:48;12.75;;;10.13;;
43990;SDS011;29654;50.784;20.604;2023-01-10T08:47:58;13.70;;;11.77;;
43990;SDS011;29654;50.784;20.604;2023-01-10T08:53:01;14.32;;;11.93;;
43990;SDS011;29654;50.784;20.604;2023-01-10T08:58:06;18.85;;;14.82;;
43990;SDS011;29654;50.784;20.604;2023-01-10T09:03:09;16.10;;;13.00;;
43990;SDS011;29654;50.784;20.604;2023-01-10T09:08:12;12.95;;;11.57;;
43990;SDS011;29654;50.784;20.604;2023-01-10T09:13:16;11.65;;;9.90;;
43990;SDS011;29654;50.784;20.604;2023-01-10T09:18:19;10.40;;;8.63;;
43990;SDS011;29654;50.784;20.604;2023-01-10T09:23:21;8.85;;;7.95;;
43990;SDS011;29654;50.784;20.604;2023-01-10T09:28:26;11.55;;;9.35;;
43990;SDS011;29654;50.784;20.604;2023-01-10T09:33:28;10.82;;;9.50;;
43990;SDS011;29654;50.784;20.604;2023-01-10T09:38:31;10.85;;;9.75;;
43990;SDS011;29654;50.784;20.604;2023-01-10T09:43:39;11.57;;;10.25;;
43990;SDS011;29654;50.784;20.604;2023-01-10T09:48:54;13.48;;;11.30;;
43990;SDS011;29654;50.784;20.604;2023-01-10T09:54:04;13.23;;;11.52;;
43990;SDS011;29654;50.784;20.604;2023-01-10T09:59:16;15.35;;;12.80;;
43990;SDS011;29654;50.784;20.604;2023-01-10T10:04:26;14.63;;;12.90;;
43990;SDS011;29654;50.784;20.604;2023-01-10T10:09:34;14.00;;;12.52;;
43990;SDS011;29654;50.784;20.604;2023-01-10T10:14:41;15.40;;;13.30;;
43990;SDS011;29654;50.784;20.604;2023-01-10T10:19:59;17.27;;;14.68;;
43990;SDS011;29654;50.784;20.604;2023-01-10T10:25:19;15.48;;;12.75;;
43990;SDS011;29654;50.784;20.604;2023-01-10T10:30:43;17.38;;;14.68;;
43990;SDS011;29654;50.784;20.604;2023-01-10T10:35:54;16.38;;;14.40;;
43990;SDS011;29654;50.784;20.604;2023-01-10T10:41:30;16.52;;;14.75;;
43990;SDS011;29654;50.784;20.604;2023-01-10T10:46:37;16.90;;;15.13;;
43990;SDS011;29654;50.784;20.604;2023-01-10T10:51:42;17.38;;;15.40;;
43990;SDS011;29654;50.784;20.604;2023-01-10T10:56:51;19.02;;;16.10;;
43990;SDS011;29654;50.784;20.604;2023-01-10T11:01:58;19.75;;;14.35;;
43990;SDS011;29654;50.784;20.604;2023-01-10T11:07:00;19.25;;;15.32;;
43990;SDS011;29654;50.784;20.604;2023-01-10T11:12:03;21.75;;;16.13;;
43990;SDS011;29654;50.784;20.604;2023-01-10T11:17:18;19.00;;;15.18;;
43990;SDS011;29654;50.784;20.604;2023-01-10T11:22:23;17.92;;;14.77;;
43990;SDS011;29654;50.784;20.604;2023-01-10T11:27:27;19.25;;;15.02;;
43990;SDS011;29654;50.784;20.604;2023-01-10T11:32:34;18.40;;;15.88;;
43990;SDS011;29654;50.784;20.604;2023-01-10T11:37:40;17.35;;;13.93;;
43990;SDS011;29654;50.784;20.604;2023-01-10T11:42:43;23.05;;;17.65;;
43990;SDS011;29654;50.784;20.604;2023-01-10T11:47:48;21.10;;;17.02;;
43990;SDS011;29654;50.784;20.604;2023-01-10T11:52:55;21.90;;;16.88;;
43990;SDS011;29654;50.784;20.604;2023-01-10T11:58:00;21.85;;;16.15;;
43990;SDS011;29654;50.784;20.604;2023-01-10T12:03:18;18.67;;;14.50;;
43990;SDS011;29654;50.784;20.604;2023-01-10T12:08:27;18.38;;;15.25;;
43990;SDS011;29654;50.784;20.604;2023-01-10T12:13:45;15.35;;;13.55;;
43990;SDS011;29654;50.784;20.604;2023-01-10T12:18:50;20.83;;;15.45;;
43990;SDS011;29654;50.784;20.604;2023-01-10T12:23:55;18.20;;;14.05;;
43990;SDS011;29654;50.784;20.604;2023-01-10T12:29:05;18.63;;;13.95;;
43990;SDS011;29654;50.784;20.604;2023-01-10T12:34:15;15.48;;;13.80;;
43990;SDS011;29654;50.784;20.604;2023-01-10T12:39:21;15.30;;;12.30;;
43990;SDS011;29654;50.784;20.604;2023-01-10T12:44:25;17.33;;;14.38;;
43990;SDS011;29654;50.784;20.604;2023-01-10T12:49:36;16.33;;;13.38;;
43990;SDS011;29654;50.784;20.604;2023-01-10T12:54:46;15.23;;;12.65;;
43990;SDS011;29654;50.784;20.604;2023-01-10T12:59:48;21.65;;;15.32;;
43990;SDS011;29654;50.784;20.604;2023-01-10T13:04:55;18.80;;;15.75;;
43990;SDS011;29654;50.784;20.604;2023-01-10T13:10:02;21.98;;;17.83;;
43990;SDS011;29654;50.784;20.604;2023-01-10T13:15:09;21.13;;;17.77;;
43990;SDS011;29654;50.784;20.604;2023-01-10T13:25:51;21.38;;;17.20;;
43990;SDS011;29654;50.784;20.604;2023-01-10T13:30:57;21.50;;;17.13;;
43990;SDS011;29654;50.784;20.604;2023-01-10T13:36:10;23.42;;;18.45;;
43990;SDS011;29654;50.784;20.604;2023-01-10T13:41:19;18.67;;;16.35;;
43990;SDS011;29654;50.784;20.604;2023-01-10T13:46:41;23.52;;;16.13;;
43990;SDS011;29654;50.784;20.604;2023-01-10T14:03:01;26.13;;;19.98;;
43990;SDS011;29654;50.784;20.604;2023-01-10T14:08:10;29.38;;;19.13;;
43990;SDS011;29654;50.784;20.604;2023-01-10T14:13:17;23.33;;;16.60;;
43990;SDS011;29654;50.784;20.604;2023-01-10T14:18:23;21.83;;;16.10;;
43990;SDS011;29654;50.784;20.604;2023-01-10T14:23:33;25.55;;;17.67;;
43990;SDS011;29654;50.784;20.604;2023-01-10T14:28:38;23.55;;;17.10;;
43990;SDS011;29654;50.784;20.604;2023-01-10T14:33:42;21.33;;;16.48;;
43990;SDS011;29654;50.784;20.604;2023-01-10T14:38:46;32.17;;;28.20;;
43990;SDS011;29654;50.784;20.604;2023-01-10T14:43:56;26.08;;;19.90;;
43990;SDS011;29654;50.784;20.604;2023-01-10T14:49:14;25.85;;;20.40;;
43990;SDS011;29654;50.784;20.604;2023-01-10T14:54:25;23.10;;;17.85;;
43990;SDS011;29654;50.784;20.604;2023-01-10T14:59:30;22.45;;;18.23;;
43990;SDS011;29654;50.784;20.604;2023-01-10T15:04:35;23.92;;;17.30;;
43990;SDS011;29654;50.784;20.604;2023-01-10T15:09:46;23.92;;;18.52;;
43990;SDS011;29654;50.784;20.604;2023-01-10T15:14:49;23.38;;;19.65;;
43990;SDS011;29654;50.784;20.604;2023-01-10T15:20:04;25.98;;;20.45;;
43990;SDS011;29654;50.784;20.604;2023-01-10T15:25:23;23.08;;;17.70;;
43990;SDS011;29654;50.784;20.604;2023-01-10T15:30:30;22.15;;;17.20;;
43990;SDS011;29654;50.784;20.604;2023-01-10T15:35:37;23.75;;;16.67;;
43990;SDS011;29654;50.784;20.604;2023-01-10T15:40:44;25.50;;;17.65;;
43990;SDS011;29654;50.784;20.604;2023-01-10T15:45:58;35.30;;;19.75;;
43990;SDS011;29654;50.784;20.604;2023-01-10T15:51:09;27.77;;;17.55;;
43990;SDS011;29654;50.784;20.604;2023-01-10T15:56:16;24.63;;;17.08;;
43990;SDS011;29654;50.784;20.604;2023-01-10T16:01:23;25.25;;;17.38;;
43990;SDS011;29654;50.784;20.604;2023-01-10T16:06:28;30.58;;;21.75;;
43990;SDS011;29654;50.784;20.604;2023-01-10T16:11:37;27.30;;;22.38;;
43990;SDS011;29654;50.784;20.604;2023-01-10T16:17:04;30.60;;;21.08;;
43990;SDS011;29654;50.784;20.604;2023-01-10T16:22:07;28.52;;;22.48;;
43990;SDS011;29654;50.784;20.604;2023-01-10T16:27:18;34.33;;;26.92;;
43990;SDS011;29654;50.784;20.604;2023-01-10T16:32:21;33.22;;;23.55;;
43990;SDS011;29654;50.784;20.604;2023-01-10T16:37:23;31.90;;;23.75;;
43990;SDS011;29654;50.784;20.604;2023-01-10T16:42:27;28.80;;;22.30;;
43990;SDS011;29654;50.784;20.604;2023-01-10T16:47:48;34.97;;;25.55;;
43990;SDS011;29654;50.784;20.604;2023-01-10T16:52:50;33.88;;;24.90;;
43990;SDS011;29654;50.784;20.604;2023-01-10T16:57:54;40.00;;;29.40;;
43990;SDS011;29654;50.784;20.604;2023-01-10T17:02:57;35.58;;;25.33;;
43990;SDS011;29654;50.784;20.604;2023-01-10T17:08:03;35.75;;;25.40;;
43990;SDS011;29654;50.784;20.604;2023-01-10T17:13:08;32.58;;;23.80;;
43990;SDS011;29654;50.784;20.604;2023-01-10T17:18:11;34.20;;;26.23;;
43990;SDS011;29654;50.784;20.604;2023-01-10T17:23:14;36.08;;;26.83;;
43990;SDS011;29654;50.784;20.604;2023-01-10T17:28:18;36.13;;;25.52;;
43990;SDS011;29654;50.784;20.604;2023-01-10T17:33:21;33.17;;;25.60;;
43990;SDS011;29654;50.784;20.604;2023-01-10T17:38:25;34.10;;;26.45;;
43990;SDS011;29654;50.784;20.604;2023-01-10T17:43:30;36.40;;;26.13;;
43990;SDS011;29654;50.784;20.604;2023-01-10T17:48:34;36.83;;;27.25;;
43990;SDS011;29654;50.784;20.604;2023-01-10T17:53:36;36.72;;;27.98;;
43990;SDS011;29654;50.784;20.604;2023-01-10T17:58:40;39.53;;;31.77;;
43990;SDS011;29654;50.784;20.604;2023-01-10T18:03:45;47.10;;;35.70;;
43990;SDS011;29654;50.784;20.604;2023-01-10T18:08:49;44.70;;;33.13;;
43990;SDS011;29654;50.784;20.604;2023-01-10T18:13:53;38.90;;;28.30;;
43990;SDS011;29654;50.784;20.604;2023-01-10T18:18:56;49.40;;;38.75;;
43990;SDS011;29654;50.784;20.604;2023-01-10T18:23:58;42.28;;;32.55;;
43990;SDS011;29654;50.784;20.604;2023-01-10T18:29:02;49.13;;;36.28;;
43990;SDS011;29654;50.784;20.604;2023-01-10T18:34:05;44.97;;;34.53;;
43990;SDS011;29654;50.784;20.604;2023-01-10T18:39:08;55.25;;;38.65;;
43990;SDS011;29654;50.784;20.604;2023-01-10T18:44:12;41.08;;;29.27;;
43990;SDS011;29654;50.784;20.604;2023-01-10T18:49:14;42.10;;;31.65;;
43990;SDS011;29654;50.784;20.604;2023-01-10T18:54:17;49.33;;;33.47;;
43990;SDS011;29654;50.784;20.604;2023-01-10T18:59:21;38.03;;;28.38;;
43990;SDS011;29654;50.784;20.604;2023-01-10T19:04:24;45.47;;;30.45;;
43990;SDS011;29654;50.784;20.604;2023-01-10T19:09:26;46.40;;;32.58;;
43990;SDS011;29654;50.784;20.604;2023-01-10T19:14:30;46.20;;;33.42;;
43990;SDS011;29654;50.784;20.604;2023-01-10T19:19:33;48.60;;;33.00;;
43990;SDS011;29654;50.784;20.604;2023-01-10T19:24:36;49.35;;;32.42;;
43990;SDS011;29654;50.784;20.604;2023-01-10T19:29:39;51.67;;;34.60;;
43990;SDS011;29654;50.784;20.604;2023-01-10T19:34:45;39.60;;;30.20;;
43990;SDS011;29654;50.784;20.604;2023-01-10T19:39:47;42.92;;;30.75;;
43990;SDS011;29654;50.784;20.604;2023-01-10T19:44:52;39.67;;;28.35;;
43990;SDS011;29654;50.784;20.604;2023-01-10T19:49:55;40.05;;;27.50;;
43990;SDS011;29654;50.784;20.604;2023-01-10T19:54:58;39.30;;;27.33;;
43990;SDS011;29654;50.784;20.604;2023-01-10T20:00:02;40.28;;;27.63;;
43990;SDS011;29654;50.784;20.604;2023-01-10T20:05:11;41.08;;;28.17;;
43990;SDS011;29654;50.784;20.604;2023-01-10T20:10:14;38.75;;;28.48;;
43990;SDS011;29654;50.784;20.604;2023-01-10T20:15:18;44.10;;;30.55;;
43990;SDS011;29654;50.784;20.604;2023-01-10T20:20:21;44.53;;;30.75;;
43990;SDS011;29654;50.784;20.604;2023-01-10T20:25:24;43.67;;;31.38;;
43990;SDS011;29654;50.784;20.604;2023-01-10T20:30:28;40.53;;;28.58;;
43990;SDS011;29654;50.784;20.604;2023-01-10T20:35:30;44.70;;;29.10;;
43990;SDS011;29654;50.784;20.604;2023-01-10T20:40:33;42.08;;;28.70;;
43990;SDS011;29654;50.784;20.604;2023-01-10T20:45:37;38.13;;;26.85;;
43990;SDS011;29654;50.784;20.604;2023-01-10T20:50:40;36.72;;;24.90;;
43990;SDS011;29654;50.784;20.604;2023-01-10T20:55:43;35.30;;;25.58;;
43990;SDS011;29654;50.784;20.604;2023-01-10T21:00:47;34.90;;;22.42;;
43990;SDS011;29654;50.784;20.604;2023-01-10T21:05:50;30.92;;;21.33;;
43990;SDS011;29654;50.784;20.604;2023-01-10T21:10:54;30.15;;;20.60;;
43990;SDS011;29654;50.784;20.604;2023-01-10T21:15:59;28.90;;;20.17;;
43990;SDS011;29654;50.784;20.604;2023-01-10T21:21:02;27.67;;;19.65;;
43990;SDS011;29654;50.784;20.604;2023-01-10T21:26:06;30.90;;;21.23;;
43990;SDS011;29654;50.784;20.604;2023-01-10T21:31:13;28.60;;;18.80;;
43990;SDS011;29654;50.784;20.604;2023-01-10T21:36:18;23.40;;;16.65;;
43990;SDS011;29654;50.784;20.604;2023-01-10T21:41:20;23.90;;;17.08;;
43990;SDS011;29654;50.784;20.604;2023-01-10T21:46:38;24.40;;;16.33;;
43990;SDS011;29654;50.784;20.604;2023-01-10T21:51:44;33.05;;;19.50;;
43990;SDS011;29654;50.784;20.604;2023-01-10T21:56:46;30.08;;;19.67;;
43990;SDS011;29654;50.784;20.604;2023-01-10T22:01:50;28.30;;;18.67;;
43990;SDS011;29654;50.784;20.604;2023-01-10T22:06:53;26.88;;;17.88;;
43990;SDS011;29654;50.784;20.604;2023-01-10T22:11:56;40.88;;;26.60;;
43990;SDS011;29654;50.784;20.604;2023-01-10T22:17:00;31.80;;;20.60;;
43990;SDS011;29654;50.784;20.604;2023-01-10T22:22:03;25.42;;;18.52;;
43990;SDS011;29654;50.784;20.604;2023-01-10T22:27:06;18.83;;;14.38;;
43990;SDS011;29654;50.784;20.604;2023-01-10T22:32:10;23.00;;;17.65;;
43990;SDS011;29654;50.784;20.604;2023-01-10T22:37:14;18.55;;;15.50;;
43990;SDS011;29654;50.784;20.604;2023-01-10T22:42:17;19.58;;;15.35;;
43990;SDS011;29654;50.784;20.604;2023-01-10T22:47:21;21.15;;;15.80;;
43990;SDS011;29654;50.784;20.604;2023-01-10T22:52:23;30.02;;;21.13;;
43990;SDS011;29654;50.784;20.604;2023-01-10T22:57:26;21.50;;;16.52;;
43990;SDS011;29654;50.784;20.604;2023-01-10T23:02:30;23.42;;;17.92;;
43990;SDS011;29654;50.784;20.604;2023-01-10T23:07:33;23.30;;;18.33;;
43990;SDS011;29654;50.784;20.604;2023-01-10T23:12:35;20.23;;;15.23;;
43990;SDS011;29654;50.784;20.604;2023-01-10T23:17:39;21.02;;;15.50;;
43990;SDS011;29654;50.784;20.604;2023-01-10T23:22:42;23.10;;;17.55;;
43990;SDS011;29654;50.784;20.604;2023-01-10T23:27:44;24.17;;;16.80;;
43990;SDS011;29654;50.784;20.604;2023-01-10T23:32:48;21.88;;;16.52;;
43990;SDS011;29654;50.784;20.604;2023-01-10T23:37:51;28.35;;;19.17;;
43990;SDS011;29654;50.784;20.604;2023-01-10T23:42:54;23.98;;;17.08;;
43990;SDS011;29654;50.784;20.604;2023-01-10T23:47:58;28.33;;;17.10;;
43990;SDS011;29654;50.784;20.604;2023-01-10T23:53:00;26.17;;;17.13;;
43990;SDS011;29654;50.784;20.604;2023-01-10T23:58:03;21.15;;;14.45;;
